createdAt,value
2023-02-11T08:10:00.597Z,44.8
2023-02-11T08:11:08.335Z,44.6
2023-02-11T08:12:00.467Z,44.5
2023-02-11T08:13:00.441Z,44.5
2023-02-11T08:14:00.642Z,43.8
2023-02-11T08:15:00.397Z,43.8
2023-02-11T08:16:00.513Z,43.5
2023-02-11T08:17:00.426Z,43.4
2023-02-11T08:18:00.443Z,43.0
2023-02-11T08:19:01.779Z,43.1
2023-02-11T08:20:00.464Z,42.7
2023-02-11T08:21:04.698Z,42.8
2023-02-11T08:22:00.392Z,42.5
2023-02-11T08:23:00.450Z,42.6
2023-02-11T08:24:01.097Z,42.2
2023-02-11T08:25:00.507Z,41.1
2023-02-11T08:26:02.432Z,41.6
2023-02-11T08:27:00.486Z,41.4
2023-02-11T08:28:00.580Z,41.4
2023-02-11T08:29:01.796Z,41.0
2023-02-11T08:30:00.410Z,41.1
2023-02-11T08:31:04.539Z,40.7
2023-02-11T08:32:00.565Z,40.5
2023-02-11T08:33:00.608Z,40.8
2023-02-11T08:34:00.754Z,40.0
2023-02-11T08:35:00.535Z,39.6
2023-02-11T08:36:00.605Z,39.2
2023-02-11T08:37:00.624Z,39.9
2023-02-11T08:38:00.436Z,39.0
2023-02-11T08:39:17.649Z,39.2
2023-02-11T08:40:00.452Z,39.4
2023-02-11T08:41:00.408Z,38.6
2023-02-11T08:42:00.500Z,37.6
2023-02-11T08:43:00.506Z,38.8
2023-02-11T08:44:00.752Z,37.6
2023-02-11T08:45:00.452Z,37.4
2023-02-11T08:46:02.107Z,38.1
2023-02-11T08:47:00.441Z,37.6
2023-02-11T08:48:00.433Z,37.1
2023-02-11T08:49:00.433Z,37.5
2023-02-11T08:50:00.425Z,37.3
2023-02-11T08:51:04.653Z,37.4
2023-02-11T08:52:00.691Z,35.7
2023-02-11T08:53:00.455Z,36.8
2023-02-11T08:54:01.074Z,36.4
2023-02-11T08:55:00.447Z,35.9
2023-02-11T08:56:00.569Z,35.9
2023-02-11T08:57:00.444Z,35.8
2023-02-11T08:58:00.419Z,35.4
2023-02-11T08:59:00.478Z,36.1
2023-02-11T09:00:00.515Z,35.6
2023-02-11T09:01:00.519Z,36.2
2023-02-11T09:02:00.514Z,35.6
2023-02-11T09:03:00.415Z,35.4
2023-02-11T09:04:00.504Z,34.9
2023-02-11T09:05:00.451Z,35.2
2023-02-11T09:06:03.623Z,35.5
2023-02-11T09:20:00.968Z,34.2
2023-02-11T09:21:02.820Z,33.8
2023-02-11T09:22:00.847Z,33.9
2023-02-11T09:23:00.845Z,33.6
2023-02-11T09:24:00.895Z,33.0
2023-02-11T09:25:00.829Z,32.2
2023-02-11T09:26:09.716Z,32.7
2023-02-11T09:40:00.862Z,31.0
2023-02-11T09:41:01.467Z,30.9
2023-02-11T09:42:07.799Z,29.5
2023-02-11T09:43:10.547Z,30.8
2023-02-11T09:44:03.343Z,29.8
2023-02-11T09:45:01.827Z,30.2
2023-02-11T09:46:00.965Z,28.8
2023-02-11T09:47:03.653Z,29.0
2023-02-11T09:48:06.183Z,28.9
2023-02-11T09:49:01.599Z,29.5
2023-02-11T09:50:03.747Z,29.3
2023-02-11T09:51:02.301Z,29.6
2023-02-11T09:52:04.111Z,29.0
2023-02-11T09:53:02.484Z,29.3
2023-02-11T09:54:05.629Z,28.7
2023-02-11T09:55:03.125Z,28.0
2023-02-11T09:56:02.031Z,28.7
2023-02-11T09:57:00.738Z,28.2
2023-02-11T09:58:02.371Z,28.8
2023-02-11T09:59:00.762Z,28.7
2023-02-11T10:00:01.294Z,27.9
2023-02-11T10:01:06.519Z,27.0
2023-02-11T10:02:09.901Z,27.6
2023-02-11T10:03:09.136Z,28.7
2023-02-11T10:04:04.151Z,27.8
2023-02-11T10:05:00.700Z,26.9
2023-02-11T10:06:04.080Z,27.5
2023-02-11T10:07:07.041Z,27.4
2023-02-11T10:08:10.592Z,28.5
2023-02-11T10:09:10.546Z,27.3
2023-02-11T10:10:04.010Z,28.5
2023-02-11T10:11:17.570Z,27.4
2023-02-11T10:12:10.509Z,27.5
2023-02-11T10:13:10.571Z,27.2
2023-02-11T10:14:10.575Z,26.8
2023-02-11T10:15:08.164Z,27.7
2023-02-11T10:16:01.789Z,28.7
2023-02-11T10:17:10.568Z,28.5
2023-02-11T10:18:10.579Z,28.7
2023-02-11T10:19:10.547Z,28.0
2023-02-11T10:20:05.523Z,28.6
2023-02-11T10:21:00.691Z,28.1
2023-02-11T10:22:04.055Z,28.6
2023-02-11T10:23:08.068Z,28.2
2023-02-11T10:25:07.600Z,28.5
2023-02-11T10:26:01.320Z,29.4
2023-02-11T10:27:05.742Z,34.2
2023-02-11T10:28:09.557Z,33.8
2023-02-11T10:29:04.545Z,30.6
2023-02-11T10:30:05.598Z,36.8
2023-02-11T10:31:04.545Z,46.6
2023-02-11T10:32:03.207Z,46.8
2023-02-11T10:33:00.704Z,49.8
2023-02-11T10:34:03.806Z,48.8
2023-02-11T10:35:07.285Z,39.8
2023-02-11T10:36:00.664Z,40.1
2023-02-11T10:37:00.730Z,41.4
2023-02-11T10:38:00.696Z,40.5
2023-02-11T10:39:08.644Z,41.0
2023-02-11T10:40:00.673Z,40.8
2023-02-11T10:41:00.743Z,38.9
2023-02-11T10:42:04.196Z,36.7
2023-02-11T10:43:03.112Z,39.4
2023-02-11T10:44:00.814Z,39.7
2023-02-11T10:45:02.656Z,39.1
2023-02-11T10:46:02.032Z,36.4
2023-02-11T10:47:08.385Z,36.8
2023-02-11T10:48:03.437Z,36.1
2023-02-11T10:49:00.717Z,35.6
2023-02-11T10:50:10.980Z,35.4
2023-02-11T10:51:07.431Z,34.6
2023-02-11T10:52:10.563Z,34.6
2023-02-11T10:53:10.566Z,33.9
2023-02-11T10:54:04.085Z,33.6
2023-02-11T10:55:10.519Z,34.0
2023-02-11T10:56:01.506Z,34.0
2023-02-11T10:57:00.657Z,34.1
2023-02-11T10:58:01.764Z,33.7
2023-02-11T10:59:03.638Z,33.0
2023-02-11T11:00:05.313Z,32.8
2023-02-11T11:01:00.761Z,32.5
2023-02-11T11:02:04.620Z,32.6
2023-02-11T11:03:01.167Z,31.4
2023-02-11T11:04:00.743Z,32.5
2023-02-11T11:05:03.569Z,31.3
2023-02-11T11:06:02.773Z,31.4
2023-02-11T11:07:10.572Z,31.5
2023-02-11T11:08:07.938Z,31.5
2023-02-11T11:09:00.850Z,31.1
2023-02-11T11:10:02.980Z,30.4
2023-02-11T11:11:05.822Z,29.9
2023-02-11T11:12:00.654Z,30.6
2023-02-11T11:13:00.763Z,30.7
2023-02-11T11:14:01.279Z,31.0
2023-02-11T11:15:02.427Z,30.3
2023-02-11T11:16:08.185Z,29.6
2023-02-11T11:17:00.884Z,30.4
2023-02-11T11:18:20.795Z,30.4
2023-02-11T11:19:08.164Z,30.2
2023-02-11T11:20:10.927Z,30.2
2023-02-11T11:21:02.424Z,29.6
2023-02-11T11:22:00.832Z,29.1
2023-02-11T11:23:08.094Z,29.4
2023-02-11T11:24:01.687Z,30.2
2023-02-11T11:25:00.852Z,29.6
2023-02-11T11:26:00.727Z,29.0
2023-02-11T11:27:01.924Z,29.8
2023-02-11T11:28:00.934Z,28.8
2023-02-11T11:29:06.603Z,28.9
2023-02-11T11:30:00.903Z,29.6
2023-02-11T11:31:01.215Z,29.6
2023-02-11T11:32:01.937Z,29.7
2023-02-11T11:33:00.902Z,30.1
2023-02-11T11:34:10.583Z,30.3
2023-02-11T11:35:02.496Z,29.5
2023-02-11T11:36:01.732Z,29.4
2023-02-11T11:37:08.617Z,29.7
2023-02-11T11:38:02.324Z,29.2
2023-02-11T11:39:02.491Z,29.8
2023-02-11T11:40:10.601Z,29.9
2023-02-11T11:41:10.600Z,29.9
2023-02-11T11:42:02.732Z,29.5
2023-02-11T11:43:03.184Z,29.4
2023-02-11T11:44:10.570Z,29.4
2023-02-11T11:45:02.954Z,29.1
2023-02-11T11:46:00.708Z,28.7
2023-02-11T11:47:10.574Z,28.5
2023-02-11T11:48:05.846Z,29.6
2023-02-11T11:49:06.586Z,29.5
2023-02-11T11:50:10.586Z,30.2
2023-02-11T11:51:03.274Z,29.5
2023-02-11T11:52:10.573Z,30.7
2023-02-11T11:53:10.550Z,30.2
2023-02-11T11:54:03.750Z,31.1
2023-02-11T11:55:05.487Z,31.0
2023-02-11T11:56:03.913Z,30.9
2023-02-11T11:57:09.341Z,30.7
2023-02-11T11:58:00.803Z,31.3
2023-02-11T11:59:02.145Z,31.5
2023-02-11T12:00:00.751Z,31.6
2023-02-11T12:01:08.793Z,31.4
2023-02-11T12:02:10.641Z,31.7
2023-02-11T12:03:10.627Z,31.7
2023-02-11T12:04:04.102Z,32.0
2023-02-11T12:05:00.716Z,30.4
2023-02-11T12:06:10.548Z,30.9
2023-02-11T12:07:10.612Z,31.3
2023-02-11T12:08:10.551Z,31.8
2023-02-11T12:09:08.816Z,31.7
2023-02-11T12:10:00.718Z,31.1
2023-02-11T12:11:04.078Z,30.9
2023-02-11T12:12:05.899Z,31.0
2023-02-11T12:13:04.063Z,31.3
2023-02-11T12:14:08.084Z,31.7
2023-02-11T12:15:09.042Z,31.3
2023-02-11T12:16:08.112Z,31.6
2023-02-11T12:17:10.549Z,31.7
2023-02-11T12:18:09.048Z,31.6
2023-02-11T12:19:10.730Z,32.0
2023-02-11T12:20:10.589Z,31.9
2023-02-11T12:21:01.721Z,31.4
2023-02-11T12:22:10.564Z,31.8
2023-02-11T12:23:10.240Z,31.8
2023-02-11T12:24:01.633Z,31.8
2023-02-11T12:25:10.539Z,31.0
2023-02-11T12:26:04.145Z,31.4
2023-02-11T12:27:07.319Z,31.3
2023-02-11T12:28:04.027Z,31.2
2023-02-11T12:29:01.745Z,30.9
2023-02-11T12:30:08.041Z,30.8
2023-02-11T12:31:04.084Z,31.2
2023-02-11T12:32:04.231Z,30.6
2023-02-11T12:33:01.755Z,31.0
2023-02-11T12:34:10.553Z,31.1
2023-02-11T12:35:10.592Z,30.8
2023-02-11T12:36:07.368Z,30.6
2023-02-11T12:37:10.584Z,31.1
2023-02-11T12:38:04.039Z,31.3
2023-02-11T12:39:00.691Z,31.1
2023-02-11T12:40:10.909Z,31.3
2023-02-11T12:41:04.076Z,31.5
2023-02-11T12:42:10.559Z,31.2
2023-02-11T12:43:10.533Z,31.2
2023-02-11T12:44:00.755Z,31.6
2023-02-11T12:45:00.717Z,31.5
2023-02-11T12:46:10.645Z,30.4
2023-02-11T12:47:10.382Z,30.9
2023-02-11T12:48:02.036Z,30.2
2023-02-11T12:49:10.579Z,30.5
2023-02-11T12:50:07.224Z,29.8
2023-02-11T12:51:10.509Z,30.4
2023-02-11T12:52:03.990Z,30.5
2023-02-11T12:53:00.686Z,30.3
2023-02-11T12:54:00.792Z,30.3
2023-02-11T12:55:03.172Z,29.6
2023-02-11T12:56:05.995Z,29.7
2023-02-11T12:57:01.743Z,29.9
2023-02-11T12:58:01.051Z,30.3
2023-02-11T12:59:04.060Z,30.7
2023-02-11T13:00:06.437Z,30.6
2023-02-11T13:01:05.259Z,30.3
2023-02-11T13:02:03.451Z,30.5
2023-02-11T13:03:10.571Z,29.6
2023-02-11T13:04:00.719Z,29.2
2023-02-11T13:05:03.680Z,29.0
2023-02-11T13:06:05.550Z,29.1
2023-02-11T13:07:04.783Z,29.1
2023-02-11T13:08:09.159Z,28.8
2023-02-11T13:09:02.926Z,28.6
2023-02-11T13:10:04.307Z,28.8
2023-02-11T13:11:03.433Z,29.6
2023-02-11T13:12:02.409Z,30.0
2023-02-11T13:13:04.251Z,29.6
2023-02-11T13:14:08.233Z,29.6
2023-02-11T13:15:05.525Z,28.8
2023-02-11T13:16:03.466Z,28.7
2023-02-11T13:17:02.915Z,28.1
2023-02-11T13:18:04.064Z,28.1
2023-02-11T13:19:09.350Z,28.3
2023-02-11T13:20:06.893Z,28.4
2023-02-11T13:21:00.730Z,27.8
2023-02-11T13:22:00.692Z,27.5
2023-02-11T13:23:07.124Z,28.0
2023-02-11T13:24:04.074Z,28.2
2023-02-11T13:25:10.619Z,27.1
2023-02-11T13:26:06.499Z,27.1
2023-02-11T13:27:10.590Z,27.1
2023-02-11T13:28:10.239Z,26.9
2023-02-11T13:29:10.717Z,26.9
2023-02-11T13:30:10.668Z,27.1
2023-02-11T13:31:01.237Z,27.3
2023-02-11T13:32:10.633Z,27.5
2023-02-11T13:33:02.216Z,27.5
2023-02-11T13:34:01.192Z,26.7
2023-02-11T13:35:00.753Z,25.8
2023-02-11T13:36:02.653Z,25.4
2023-02-11T13:37:00.763Z,25.9
2023-02-11T13:38:02.450Z,25.5
2023-02-11T13:39:02.409Z,26.2
2023-02-11T13:40:04.175Z,25.4
2023-02-11T13:41:03.758Z,25.2
2023-02-11T13:42:01.698Z,25.1
2023-02-11T13:43:02.333Z,25.2
2023-02-11T13:44:08.156Z,25.3
2023-02-11T13:45:00.960Z,25.1
2023-02-11T13:46:02.005Z,25.4
2023-02-11T13:47:02.916Z,25.3
2023-02-11T13:48:03.111Z,25.2
2023-02-11T13:49:00.837Z,24.5
2023-02-11T13:50:02.113Z,24.5
2023-02-11T13:51:02.525Z,24.4
2023-02-11T13:52:02.175Z,24.4
2023-02-11T13:53:01.903Z,24.6
2023-02-11T13:54:01.117Z,24.6
2023-02-11T13:55:10.584Z,24.7
2023-02-11T13:56:09.255Z,24.8
2023-02-11T13:57:10.546Z,25.0
2023-02-11T13:58:01.707Z,25.2
2023-02-11T13:59:02.348Z,25.2
2023-02-11T14:00:06.380Z,24.8
2023-02-11T14:01:00.792Z,24.5
2023-02-11T14:02:00.781Z,24.7
2023-02-11T14:03:10.590Z,24.3
2023-02-11T14:04:10.577Z,24.0
2023-02-11T14:05:04.078Z,23.7
2023-02-11T14:06:08.030Z,24.1
2023-02-11T14:07:10.560Z,24.4
2023-02-11T14:08:10.732Z,24.4
2023-02-11T14:09:08.125Z,24.4
2023-02-11T14:10:00.726Z,24.7
2023-02-11T14:11:02.089Z,24.9
2023-02-11T14:12:10.566Z,24.3
2023-02-11T14:13:04.477Z,23.8
2023-02-11T14:14:04.096Z,23.7
2023-02-11T14:15:10.592Z,23.8
2023-02-11T14:16:10.611Z,23.4
2023-02-11T14:17:08.181Z,23.7
2023-02-11T14:18:00.660Z,24.2
2023-02-11T14:19:00.806Z,24.1
2023-02-11T14:20:01.973Z,24.1
2023-02-11T14:21:09.748Z,24.4
2023-02-11T14:22:03.207Z,24.7
2023-02-11T14:23:00.759Z,24.5
2023-02-11T14:24:00.743Z,24.3
2023-02-11T14:25:01.985Z,24.0
2023-02-11T14:26:10.595Z,24.2
2023-02-11T14:27:04.658Z,24.2
2023-02-11T14:28:07.242Z,24.3
2023-02-11T14:29:10.553Z,24.0
2023-02-11T14:30:06.691Z,24.0
2023-02-11T14:31:06.806Z,23.9
2023-02-11T14:32:07.886Z,24.4
2023-02-11T14:33:00.821Z,24.4
2023-02-11T14:34:07.086Z,24.7
2023-02-11T14:35:10.545Z,24.4
2023-02-11T14:36:10.586Z,24.5
2023-02-11T14:37:10.571Z,24.4
2023-02-11T14:38:10.570Z,24.9
2023-02-11T14:39:10.521Z,24.8
2023-02-11T14:40:07.969Z,24.5
2023-02-11T14:41:05.491Z,24.5
2023-02-11T14:42:01.603Z,25.0
2023-02-11T14:43:05.080Z,25.1
2023-02-11T14:44:03.866Z,25.1
2023-02-11T14:45:03.692Z,24.7
2023-02-11T14:46:02.037Z,24.3
2023-02-11T14:47:00.791Z,24.5
2023-02-11T14:48:00.725Z,24.3
2023-02-11T14:49:02.337Z,24.1
2023-02-11T14:50:00.874Z,24.2
2023-02-11T14:51:10.140Z,24.4
2023-02-11T14:52:10.600Z,24.0
2023-02-11T14:53:02.034Z,24.0
2023-02-11T14:54:08.180Z,24.1
2023-02-11T14:55:08.146Z,24.0
2023-02-11T14:56:00.794Z,24.2
2023-02-11T14:57:10.571Z,24.2
2023-02-11T14:58:10.573Z,24.0
2023-02-11T14:59:00.808Z,24.2
2023-02-11T15:00:05.261Z,24.1
2023-02-11T15:01:02.453Z,24.5
2023-02-11T15:02:00.826Z,24.8
2023-02-11T15:03:00.889Z,24.4
2023-02-11T15:04:01.673Z,24.5
2023-02-11T15:05:10.638Z,24.2
2023-02-11T15:06:03.009Z,24.3
2023-02-11T15:07:03.783Z,24.5
2023-02-11T15:08:01.565Z,25.0
2023-02-11T15:09:03.704Z,25.1
2023-02-11T15:10:01.303Z,24.9
2023-02-11T15:11:02.043Z,25.0
2023-02-11T15:12:00.858Z,24.8
2023-02-11T15:13:01.418Z,25.0
2023-02-11T15:14:06.862Z,24.9
2023-02-11T15:15:00.829Z,25.2
2023-02-11T15:16:04.918Z,25.3
2023-02-11T15:17:02.362Z,25.4
2023-02-11T15:18:01.851Z,25.5
2023-02-11T15:19:02.884Z,25.4
2023-02-11T15:20:01.476Z,25.4
2023-02-11T15:21:00.876Z,25.6
2023-02-11T15:22:03.787Z,25.7
2023-02-11T15:23:03.245Z,26.0
2023-02-11T15:24:03.104Z,25.7
2023-02-11T15:25:10.578Z,25.5
2023-02-11T15:26:00.783Z,25.6
2023-02-11T15:27:01.802Z,25.6
2023-02-11T15:28:00.818Z,25.8
2023-02-11T15:29:00.884Z,25.5
2023-02-11T15:30:00.836Z,25.5
2023-02-11T15:31:02.419Z,25.0
2023-02-11T15:32:02.731Z,25.3
2023-02-11T15:33:01.869Z,25.1
2023-02-11T15:34:05.975Z,24.6
2023-02-11T15:35:00.831Z,24.1
2023-02-11T15:36:01.406Z,24.0
2023-02-11T15:37:01.717Z,24.1
2023-02-11T15:38:00.909Z,24.1
2023-02-11T15:39:10.866Z,24.9
2023-02-11T15:40:10.724Z,25.0
2023-02-11T15:41:02.398Z,25.3
2023-02-11T15:42:10.928Z,25.3
2023-02-11T15:43:01.754Z,25.3
2023-02-11T15:44:01.298Z,24.6
2023-02-11T15:45:08.104Z,24.5
2023-02-11T15:46:00.966Z,24.7
2023-02-11T15:47:00.801Z,24.9
2023-02-11T15:48:01.710Z,24.7
2023-02-11T15:49:00.886Z,25.1
2023-02-11T15:50:01.382Z,25.5
2023-02-11T15:51:04.746Z,25.6
2023-02-11T15:52:02.026Z,25.3
2023-02-11T15:53:04.044Z,25.6
2023-02-11T15:54:02.427Z,25.8
2023-02-11T15:55:01.137Z,26.1
2023-02-11T15:56:03.770Z,26.0
2023-02-11T15:57:03.006Z,26.4
2023-02-11T15:58:01.062Z,26.8
2023-02-11T15:59:10.146Z,27.0
2023-02-11T16:00:00.861Z,26.8
2023-02-11T16:01:00.743Z,26.7
2023-02-11T16:02:10.613Z,26.9
2023-02-11T16:03:01.213Z,26.7
2023-02-11T16:04:01.501Z,26.6
2023-02-11T16:05:03.178Z,26.1
2023-02-11T16:06:10.548Z,26.1
2023-02-11T16:07:00.717Z,26.3
2023-02-11T16:08:10.606Z,26.7
2023-02-11T16:09:10.623Z,26.7
2023-02-11T16:10:00.739Z,27.2
2023-02-11T16:11:02.024Z,27.3
2023-02-11T16:12:02.813Z,27.4
2023-02-11T16:13:02.576Z,27.8
2023-02-11T16:14:01.718Z,28.2
2023-02-11T16:15:10.558Z,28.4
2023-02-11T16:16:02.856Z,28.7
2023-02-11T16:17:00.675Z,29.2
2023-02-11T16:18:02.527Z,29.1
2023-02-11T16:19:05.262Z,29.9
2023-02-11T16:20:00.758Z,30.1
2023-02-11T16:21:01.452Z,30.0
2023-02-11T16:22:06.156Z,29.8
2023-02-11T16:23:02.072Z,29.6
2023-02-11T16:24:01.099Z,29.2
2023-02-11T16:25:00.813Z,28.9
2023-02-11T16:26:02.759Z,28.9
2023-02-11T16:27:02.560Z,29.2
2023-02-11T16:28:00.902Z,29.6
2023-02-11T16:29:10.554Z,29.7
2023-02-11T16:30:00.913Z,30.0
2023-02-11T16:31:02.541Z,30.4
2023-02-11T16:32:06.005Z,30.9
2023-02-11T16:33:00.747Z,31.4
2023-02-11T16:34:00.748Z,31.7
2023-02-11T16:35:00.869Z,31.5
2023-02-11T16:36:05.320Z,31.3
2023-02-11T16:37:02.408Z,31.8
2023-02-11T16:38:00.705Z,31.8
2023-02-11T16:39:00.745Z,31.3
2023-02-11T16:40:00.750Z,31.3
2023-02-11T16:41:00.705Z,31.5
2023-02-11T16:42:01.200Z,31.8
2023-02-11T16:43:00.725Z,31.9
2023-02-11T16:44:00.830Z,32.0
2023-02-11T16:45:00.753Z,31.8
2023-02-11T16:46:00.769Z,31.9
2023-02-11T16:47:01.456Z,32.5
2023-02-11T16:48:00.775Z,32.8
2023-02-11T16:49:08.242Z,32.9
2023-02-11T16:50:01.324Z,33.0
2023-02-11T16:51:00.718Z,33.1
2023-02-11T16:52:04.435Z,32.7
2023-02-11T16:53:00.770Z,32.6
2023-02-11T16:54:00.753Z,32.2
2023-02-11T16:55:01.476Z,31.7
2023-02-11T16:56:00.742Z,31.5
2023-02-11T16:57:04.610Z,31.8
2023-02-11T16:58:00.724Z,31.6
2023-02-11T16:59:00.715Z,31.8
2023-02-11T17:00:00.948Z,31.8
2023-02-11T17:01:00.756Z,31.9
2023-02-11T17:02:00.783Z,32.0
2023-02-11T17:03:00.837Z,32.2
2023-02-11T17:04:00.799Z,32.4
2023-02-11T17:05:02.618Z,32.1
2023-02-11T17:06:01.720Z,32.3
2023-02-11T17:07:00.720Z,32.5
2023-02-11T17:08:00.703Z,32.8
2023-02-11T17:09:01.067Z,32.8
2023-02-11T17:10:00.829Z,33.1
2023-02-11T17:11:01.013Z,33.5
2023-02-11T17:12:00.714Z,33.6
2023-02-11T17:13:00.712Z,33.9
2023-02-11T17:14:00.760Z,34.7
2023-02-11T17:15:00.687Z,34.0
2023-02-11T17:16:00.883Z,35.0
2023-02-11T17:17:00.743Z,35.2
2023-02-11T17:18:00.712Z,35.3
2023-02-11T17:19:00.711Z,35.8
2023-02-11T17:20:00.996Z,36.0
2023-02-11T17:21:00.673Z,36.6
2023-02-11T17:22:00.761Z,36.9
2023-02-11T17:23:00.718Z,37.2
2023-02-11T17:24:00.704Z,37.5
2023-02-11T17:25:00.790Z,36.9
2023-02-11T17:26:00.682Z,38.3
2023-02-11T17:27:00.732Z,38.9
2023-02-11T17:28:00.879Z,39.1
2023-02-11T17:29:00.699Z,39.1
2023-02-11T17:30:00.774Z,39.4
2023-02-11T17:31:05.407Z,39.9
2023-02-11T17:32:00.828Z,40.1
2023-02-11T17:33:00.823Z,40.0
2023-02-11T17:34:00.699Z,40.4
2023-02-11T17:35:00.702Z,39.3
2023-02-11T17:36:03.294Z,40.8
2023-02-11T17:37:00.734Z,40.1
2023-02-11T17:38:00.784Z,40.7
2023-02-11T17:39:01.380Z,41.0
2023-02-11T17:40:00.756Z,41.2
2023-02-11T17:41:01.215Z,41.6
2023-02-11T17:42:00.875Z,41.8
2023-02-11T17:43:00.720Z,41.9
2023-02-11T17:44:00.770Z,42.1
2023-02-11T17:45:00.735Z,41.2
2023-02-11T17:46:04.216Z,42.8
2023-02-11T17:47:00.720Z,42.4
2023-02-11T17:48:00.735Z,42.6
2023-02-11T17:49:01.123Z,42.2
2023-02-11T17:50:00.808Z,43.4
2023-02-11T17:51:00.742Z,44.0
2023-02-11T17:52:00.730Z,43.7
2023-02-11T17:53:00.707Z,43.5
2023-02-11T17:54:04.701Z,42.4
2023-02-11T17:55:00.751Z,42.4
2023-02-11T17:56:01.039Z,42.1
2023-02-11T17:57:00.807Z,42.3
2023-02-11T17:58:01.628Z,43.1
2023-02-11T17:59:01.221Z,42.4
2023-02-11T18:00:00.823Z,42.2
2023-02-11T18:01:00.851Z,42.7
2023-02-11T18:02:01.818Z,42.3
2023-02-11T18:03:00.789Z,42.6
2023-02-11T18:04:01.348Z,42.8
2023-02-11T18:05:00.819Z,42.4
2023-02-11T18:06:02.607Z,44.4
2023-02-11T18:07:00.741Z,44.0
2023-02-11T18:08:00.847Z,44.4
2023-02-11T18:09:01.248Z,43.8
2023-02-11T18:10:00.756Z,44.9
2023-02-11T18:11:00.815Z,43.5
2023-02-11T18:12:00.808Z,43.7
2023-02-11T18:13:00.848Z,43.7
2023-02-11T18:14:01.331Z,43.5
2023-02-11T18:15:00.836Z,43.5
2023-02-11T18:16:01.383Z,43.8
2023-02-11T18:17:00.739Z,43.7
2023-02-11T18:18:00.750Z,43.8
2023-02-11T18:19:01.165Z,43.8
2023-02-11T18:20:00.689Z,44.1
2023-02-11T18:21:02.081Z,43.7
2023-02-11T18:22:01.298Z,43.9
2023-02-11T18:23:00.931Z,44.0
2023-02-11T18:24:06.040Z,44.8
2023-02-11T18:25:00.752Z,44.2
2023-02-11T18:26:00.758Z,44.7
2023-02-11T18:27:00.741Z,45.0
2023-02-11T18:28:00.803Z,44.9
2023-02-11T18:29:01.089Z,45.0
2023-02-11T18:30:00.698Z,46.6
2023-02-11T18:31:01.284Z,46.1
2023-02-11T18:32:00.809Z,45.7
2023-02-11T18:33:00.716Z,45.6
2023-02-11T18:34:02.376Z,47.8
2023-02-11T18:35:00.719Z,46.2
2023-02-11T18:36:03.928Z,46.7
2023-02-11T18:37:00.651Z,46.9
2023-02-11T18:38:00.674Z,48.2
2023-02-11T18:39:00.817Z,47.6
2023-02-11T18:40:00.781Z,47.7
2023-02-11T18:41:01.044Z,48.6
2023-02-11T18:42:00.678Z,49.0
2023-02-11T18:43:00.703Z,48.5
2023-02-11T18:44:00.664Z,48.9
2023-02-11T18:45:00.961Z,48.6
2023-02-11T18:46:01.768Z,49.3
2023-02-11T18:47:00.756Z,49.7
2023-02-11T18:48:00.715Z,49.5
2023-02-11T18:49:00.735Z,49.3
2023-02-11T18:50:00.763Z,49.3
2023-02-11T18:51:00.724Z,49.5
2023-02-11T18:52:01.014Z,49.3
2023-02-11T18:53:00.772Z,50.1
2023-02-11T18:54:00.701Z,50.6
2023-02-11T18:55:00.686Z,50.2
2023-02-11T18:56:05.101Z,50.5
2023-02-11T18:57:00.729Z,51.0
2023-02-11T18:58:00.707Z,51.3
2023-02-11T18:59:00.724Z,51.1
2023-02-11T19:00:00.750Z,52.2
2023-02-11T19:01:00.741Z,52.3
2023-02-11T19:02:00.733Z,52.2
2023-02-11T19:03:01.260Z,53.0
2023-02-11T19:04:02.261Z,54.0
2023-02-11T19:05:00.780Z,52.7
2023-02-11T19:06:00.711Z,53.8
2023-02-11T19:07:00.790Z,53.0
2023-02-11T19:08:01.059Z,53.4
2023-02-11T19:09:04.058Z,53.2
2023-02-11T19:10:00.692Z,53.7
2023-02-11T19:11:03.472Z,53.4
2023-02-11T19:12:01.087Z,54.1
2023-02-11T19:13:00.702Z,53.9
2023-02-11T19:14:03.628Z,53.3
2023-02-11T19:15:00.782Z,53.3
2023-02-11T19:16:03.688Z,54.1
2023-02-11T19:17:03.281Z,53.5
2023-02-11T19:18:00.792Z,54.3
2023-02-11T19:19:00.698Z,54.3
2023-02-11T19:20:00.757Z,53.6
2023-02-11T19:21:05.421Z,53.9
2023-02-11T19:22:03.701Z,53.8
2023-02-11T19:23:00.726Z,54.0
2023-02-11T19:24:00.809Z,53.7
2023-02-11T19:25:00.853Z,53.6
2023-02-11T19:26:00.898Z,54.6
2023-02-11T19:27:01.470Z,54.8
2023-02-11T19:28:00.766Z,54.2
2023-02-11T19:29:00.873Z,55.0
2023-02-11T19:30:00.654Z,55.5
2023-02-11T19:31:04.677Z,55.8
2023-02-11T19:32:01.814Z,55.7
2023-02-11T19:33:00.746Z,55.4
2023-02-11T19:34:01.370Z,55.9
2023-02-11T19:35:00.708Z,55.9
2023-02-11T19:36:01.632Z,56.3
2023-02-11T19:37:00.715Z,56.3
2023-02-11T19:38:01.376Z,55.9
2023-02-11T19:39:01.333Z,56.0
2023-02-11T19:40:00.810Z,56.3
2023-02-11T19:41:00.722Z,56.3
2023-02-11T19:42:00.719Z,56.2
2023-02-11T19:43:00.727Z,56.2
2023-02-11T19:44:01.275Z,56.3
2023-02-11T19:45:00.731Z,56.4
2023-02-11T19:46:01.653Z,56.6
2023-02-11T19:47:00.763Z,56.6
2023-02-11T19:48:00.714Z,57.1
2023-02-11T19:49:00.859Z,56.9
2023-02-11T19:50:00.999Z,56.7
2023-02-11T19:51:07.490Z,56.7
2023-02-11T19:52:00.723Z,56.9
2023-02-11T19:53:00.717Z,57.4
2023-02-11T19:54:00.754Z,56.9
2023-02-11T19:55:00.722Z,57.2
2023-02-11T19:56:01.579Z,57.7
2023-02-11T19:57:00.750Z,57.9
2023-02-11T19:58:00.698Z,57.5
2023-02-11T19:59:01.402Z,57.2
2023-02-11T20:00:00.694Z,57.3
2023-02-11T20:01:05.381Z,57.4
2023-02-11T20:02:00.847Z,57.4
2023-02-11T20:03:00.857Z,57.7
2023-02-11T20:04:00.711Z,57.2
2023-02-11T20:05:00.753Z,57.3
2023-02-11T20:06:04.958Z,57.6
2023-02-11T20:07:00.737Z,57.5
2023-02-11T20:08:00.746Z,57.8
2023-02-11T20:09:06.048Z,57.8
2023-02-11T20:10:00.884Z,58.2
2023-02-11T20:11:04.816Z,57.9
2023-02-11T20:12:00.739Z,57.9
2023-02-11T20:13:00.762Z,57.8
2023-02-11T20:14:01.040Z,57.9
2023-02-11T20:15:00.756Z,58.0
2023-02-11T20:16:02.851Z,58.3
2023-02-11T20:17:00.754Z,58.3
2023-02-11T20:18:00.710Z,58.7
2023-02-11T20:19:00.799Z,58.7
2023-02-11T20:20:00.779Z,58.5
2023-02-11T20:21:06.929Z,58.3
2023-02-11T20:22:00.717Z,58.6
2023-02-11T20:23:00.745Z,58.6
2023-02-11T20:24:00.772Z,58.8
2023-02-11T20:25:00.740Z,58.7
2023-02-11T20:26:04.977Z,59.2
2023-02-11T20:27:00.722Z,59.5
2023-02-11T20:28:00.776Z,59.3
2023-02-11T20:29:00.912Z,59.8
2023-02-11T20:30:00.682Z,59.7
2023-02-11T20:31:01.212Z,59.7
2023-02-11T20:32:00.927Z,59.7
2023-02-11T20:33:00.734Z,60.0
2023-02-11T20:34:00.932Z,59.8
2023-02-11T20:35:00.830Z,59.8
2023-02-11T20:36:02.355Z,59.8
2023-02-11T20:37:00.822Z,59.9
2023-02-11T20:38:00.714Z,60.2
2023-02-11T20:39:01.261Z,59.9
2023-02-11T20:40:00.734Z,60.2
2023-02-11T20:41:01.618Z,60.3
2023-02-11T20:42:00.719Z,60.3
2023-02-11T20:43:00.768Z,60.6
2023-02-11T20:44:03.316Z,60.7
2023-02-11T20:45:00.729Z,61.7
2023-02-11T20:46:02.053Z,61.0
2023-02-11T20:47:00.724Z,60.8
2023-02-11T20:48:00.771Z,61.0
2023-02-11T20:49:00.807Z,60.8
2023-02-11T20:50:00.710Z,60.8
2023-02-11T20:51:01.774Z,60.8
2023-02-11T20:52:00.711Z,61.0
2023-02-11T20:53:00.681Z,61.0
2023-02-11T20:54:00.752Z,60.9
2023-02-11T20:55:00.733Z,61.1
2023-02-11T20:56:03.320Z,61.2
2023-02-11T20:57:00.667Z,61.3
2023-02-11T20:58:00.695Z,61.1
2023-02-11T20:59:01.367Z,61.2
2023-02-11T21:00:00.733Z,61.6
2023-02-11T21:01:09.321Z,61.5
2023-02-11T21:02:00.809Z,61.7
2023-02-11T21:03:00.816Z,61.9
2023-02-11T21:04:02.012Z,61.8
2023-02-11T21:05:00.750Z,61.8
2023-02-11T21:06:01.223Z,62.1
2023-02-11T21:07:00.918Z,62.1
2023-02-11T21:08:00.687Z,62.0
2023-02-11T21:09:02.013Z,62.0
2023-02-11T21:10:00.706Z,62.1
2023-02-11T21:11:00.726Z,62.1
2023-02-11T21:12:01.262Z,62.1
2023-02-11T21:13:00.710Z,62.5
2023-02-11T21:14:00.751Z,62.7
2023-02-11T21:15:00.730Z,62.5
2023-02-11T21:16:00.856Z,62.2
2023-02-11T21:17:00.801Z,62.1
2023-02-11T21:18:00.774Z,62.4
2023-02-11T21:19:01.057Z,62.3
2023-02-11T21:20:00.837Z,62.6
2023-02-11T21:21:00.762Z,62.6
2023-02-11T21:22:00.778Z,62.9
2023-02-11T21:23:01.054Z,63.0
2023-02-11T21:24:00.817Z,62.8
2023-02-11T21:25:00.722Z,62.8
2023-02-11T21:26:00.866Z,62.8
2023-02-11T21:27:00.762Z,62.6
2023-02-11T21:28:00.836Z,62.8
2023-02-11T21:29:01.457Z,62.9
2023-02-11T21:30:01.002Z,62.7
2023-02-11T21:31:01.287Z,62.6
2023-02-11T21:32:00.795Z,62.9
2023-02-11T21:33:00.723Z,62.9
2023-02-11T21:34:01.119Z,62.8
2023-02-11T21:35:02.267Z,62.7
2023-02-11T21:36:02.451Z,62.8
2023-02-11T21:37:00.739Z,62.9
2023-02-11T21:38:00.696Z,63.1
2023-02-11T21:39:00.890Z,63.2
2023-02-11T21:40:00.846Z,62.9
2023-02-11T21:41:02.904Z,62.9
2023-02-11T21:42:00.710Z,63.0
2023-02-11T21:43:00.793Z,62.9
2023-02-11T21:44:00.977Z,63.1
2023-02-11T21:45:00.713Z,62.9
2023-02-11T21:46:05.265Z,63.0
2023-02-11T21:47:00.738Z,63.0
2023-02-11T21:48:00.727Z,63.0
2023-02-11T21:49:00.813Z,63.2
2023-02-11T21:50:00.863Z,63.0
2023-02-11T21:51:04.030Z,63.0
2023-02-11T21:52:00.750Z,63.2
2023-02-11T21:53:00.728Z,63.5
2023-02-11T21:54:01.499Z,63.5
2023-02-11T21:55:00.739Z,63.6